sensor_id;sensor_type;location;lat;lon;timestamp;temperature;humidity
6752;DHT22;3413;47.680;9.166;2023-08-06T00:01:58;20.10;77.60
6752;DHT22;3413;47.680;9.166;2023-08-06T00:07:00;20.10;77.70
6752;DHT22;3413;47.680;9.166;2023-08-06T00:12:02;20.20;77.70
6752;DHT22;3413;47.680;9.166;2023-08-06T00:17:03;20.20;77.80
6752;DHT22;3413;47.680;9.166;2023-08-06T00:22:06;20.20;77.70
6752;DHT22;3413;47.680;9.166;2023-08-06T00:27:08;20.30;77.70
6752;DHT22;3413;47.680;9.166;2023-08-06T00:32:10;20.20;77.70
6752;DHT22;3413;47.680;9.166;2023-08-06T00:37:13;20.10;77.70
6752;DHT22;3413;47.680;9.166;2023-08-06T00:42:15;20.00;78.20
6752;DHT22;3413;47.680;9.166;2023-08-06T00:47:22;20.00;77.50
6752;DHT22;3413;47.680;9.166;2023-08-06T00:52:24;20.00;77.50
6752;DHT22;3413;47.680;9.166;2023-08-06T00:57:26;20.00;77.60
6752;DHT22;3413;47.680;9.166;2023-08-06T01:02:28;20.00;77.60
6752;DHT22;3413;47.680;9.166;2023-08-06T01:13:18;19.60;77.80
6752;DHT22;3413;47.680;9.166;2023-08-06T01:18:23;19.60;77.90
6752;DHT22;3413;47.680;9.166;2023-08-06T01:23:25;19.70;77.70
6752;DHT22;3413;47.680;9.166;2023-08-06T01:28:44;19.60;77.50
6752;DHT22;3413;47.680;9.166;2023-08-06T01:33:49;19.50;77.80
6752;DHT22;3413;47.680;9.166;2023-08-06T01:38:55;19.40;77.70
6752;DHT22;3413;47.680;9.166;2023-08-06T01:43:59;19.30;77.80
6752;DHT22;3413;47.680;9.166;2023-08-06T01:49:01;19.50;77.80
6752;DHT22;3413;47.680;9.166;2023-08-06T01:54:03;19.60;77.80
6752;DHT22;3413;47.680;9.166;2023-08-06T01:59:05;19.60;77.70
6752;DHT22;3413;47.680;9.166;2023-08-06T02:04:07;19.60;77.80
6752;DHT22;3413;47.680;9.166;2023-08-06T02:09:08;19.70;77.80
6752;DHT22;3413;47.680;9.166;2023-08-06T02:14:10;19.60;77.70
6752;DHT22;3413;47.680;9.166;2023-08-06T02:19:14;19.50;77.80
6752;DHT22;3413;47.680;9.166;2023-08-06T02:24:16;19.60;77.90
6752;DHT22;3413;47.680;9.166;2023-08-06T02:29:18;19.70;77.90
6752;DHT22;3413;47.680;9.166;2023-08-06T02:34:20;19.60;77.80
6752;DHT22;3413;47.680;9.166;2023-08-06T02:39:21;19.40;77.80
6752;DHT22;3413;47.680;9.166;2023-08-06T02:44:27;19.20;77.90
6752;DHT22;3413;47.680;9.166;2023-08-06T02:49:29;19.10;78.00
6752;DHT22;3413;47.680;9.166;2023-08-06T02:54:31;19.00;77.80
6752;DHT22;3413;47.680;9.166;2023-08-06T02:59:33;18.90;77.80
6752;DHT22;3413;47.680;9.166;2023-08-06T03:04:43;18.80;77.90
6752;DHT22;3413;47.680;9.166;2023-08-06T03:09:46;18.80;77.80
6752;DHT22;3413;47.680;9.166;2023-08-06T03:14:48;18.70;77.80
6752;DHT22;3413;47.680;9.166;2023-08-06T03:19:51;18.70;77.80
6752;DHT22;3413;47.680;9.166;2023-08-06T03:24:53;18.60;77.80
6752;DHT22;3413;47.680;9.166;2023-08-06T03:29:58;18.60;77.80
6752;DHT22;3413;47.680;9.166;2023-08-06T03:35:03;18.60;77.80
6752;DHT22;3413;47.680;9.166;2023-08-06T03:40:07;18.70;77.90
6752;DHT22;3413;47.680;9.166;2023-08-06T03:45:09;18.70;77.80
6752;DHT22;3413;47.680;9.166;2023-08-06T03:50:14;18.80;77.90
6752;DHT22;3413;47.680;9.166;2023-08-06T03:55:16;18.70;77.80
6752;DHT22;3413;47.680;9.166;2023-08-06T04:00:43;18.70;77.80
6752;DHT22;3413;47.680;9.166;2023-08-06T04:05:46;18.60;77.90
6752;DHT22;3413;47.680;9.166;2023-08-06T04:10:52;18.60;78.10
6752;DHT22;3413;47.680;9.166;2023-08-06T04:15:54;18.50;78.10
6752;DHT22;3413;47.680;9.166;2023-08-06T04:20:58;18.50;78.10
6752;DHT22;3413;47.680;9.166;2023-08-06T04:26:00;18.50;78.10
6752;DHT22;3413;47.680;9.166;2023-08-06T04:31:06;18.50;78.10
6752;DHT22;3413;47.680;9.166;2023-08-06T04:36:10;18.50;78.00
6752;DHT22;3413;47.680;9.166;2023-08-06T04:41:12;18.50;78.10
6752;DHT22;3413;47.680;9.166;2023-08-06T04:46:14;18.50;78.10
6752;DHT22;3413;47.680;9.166;2023-08-06T04:51:16;18.50;77.90
6752;DHT22;3413;47.680;9.166;2023-08-06T04:56:18;18.40;77.80
6752;DHT22;3413;47.680;9.166;2023-08-06T05:01:20;18.20;77.80
6752;DHT22;3413;47.680;9.166;2023-08-06T05:06:23;18.00;77.90
6752;DHT22;3413;47.680;9.166;2023-08-06T05:11:25;17.90;78.00
6752;DHT22;3413;47.680;9.166;2023-08-06T05:16:27;17.70;77.80
6752;DHT22;3413;47.680;9.166;2023-08-06T05:21:29;17.50;78.00
6752;DHT22;3413;47.680;9.166;2023-08-06T05:26:31;17.50;78.00
6752;DHT22;3413;47.680;9.166;2023-08-06T05:31:34;17.50;78.00
6752;DHT22;3413;47.680;9.166;2023-08-06T05:36:36;17.40;77.90
6752;DHT22;3413;47.680;9.166;2023-08-06T05:41:38;17.40;77.80
6752;DHT22;3413;47.680;9.166;2023-08-06T05:46:40;17.30;77.70
6752;DHT22;3413;47.680;9.166;2023-08-06T05:51:42;17.30;77.70
6752;DHT22;3413;47.680;9.166;2023-08-06T05:56:44;17.20;77.80
6752;DHT22;3413;47.680;9.166;2023-08-06T06:01:46;17.10;77.70
6752;DHT22;3413;47.680;9.166;2023-08-06T06:06:48;17.10;78.00
6752;DHT22;3413;47.680;9.166;2023-08-06T06:11:50;17.10;77.90
6752;DHT22;3413;47.680;9.166;2023-08-06T06:16:53;17.10;78.00
6752;DHT22;3413;47.680;9.166;2023-08-06T06:21:55;17.10;78.20
6752;DHT22;3413;47.680;9.166;2023-08-06T06:27:00;17.20;78.80
6752;DHT22;3413;47.680;9.166;2023-08-06T06:32:02;17.20;78.00
6752;DHT22;3413;47.680;9.166;2023-08-06T06:37:04;17.20;78.00
6752;DHT22;3413;47.680;9.166;2023-08-06T06:42:06;17.20;78.10
6752;DHT22;3413;47.680;9.166;2023-08-06T06:47:15;17.20;78.10
6752;DHT22;3413;47.680;9.166;2023-08-06T06:52:17;17.20;78.10
6752;DHT22;3413;47.680;9.166;2023-08-06T06:57:19;17.30;78.20
6752;DHT22;3413;47.680;9.166;2023-08-06T07:02:21;17.40;78.20
6752;DHT22;3413;47.680;9.166;2023-08-06T07:07:23;17.40;78.10
6752;DHT22;3413;47.680;9.166;2023-08-06T07:12:25;17.50;78.30
6752;DHT22;3413;47.680;9.166;2023-08-06T07:17:27;17.60;78.40
6752;DHT22;3413;47.680;9.166;2023-08-06T07:22:29;17.60;78.20
6752;DHT22;3413;47.680;9.166;2023-08-06T07:27:32;17.70;78.40
6752;DHT22;3413;47.680;9.166;2023-08-06T07:32:34;17.60;78.40
6752;DHT22;3413;47.680;9.166;2023-08-06T07:37:36;17.60;78.30
6752;DHT22;3413;47.680;9.166;2023-08-06T07:42:38;17.70;78.40
6752;DHT22;3413;47.680;9.166;2023-08-06T07:47:40;17.70;78.40
6752;DHT22;3413;47.680;9.166;2023-08-06T07:52:42;17.60;78.30
6752;DHT22;3413;47.680;9.166;2023-08-06T07:57:44;17.60;78.30
6752;DHT22;3413;47.680;9.166;2023-08-06T08:02:50;17.60;78.40
6752;DHT22;3413;47.680;9.166;2023-08-06T08:07:52;17.60;78.40
6752;DHT22;3413;47.680;9.166;2023-08-06T08:12:54;17.70;78.50
6752;DHT22;3413;47.680;9.166;2023-08-06T08:17:58;17.70;78.40
6752;DHT22;3413;47.680;9.166;2023-08-06T08:23:00;17.60;78.40
6752;DHT22;3413;47.680;9.166;2023-08-06T08:28:02;17.60;78.70
6752;DHT22;3413;47.680;9.166;2023-08-06T08:33:04;17.60;78.60
6752;DHT22;3413;47.680;9.166;2023-08-06T08:38:06;17.60;78.60
6752;DHT22;3413;47.680;9.166;2023-08-06T08:43:08;17.60;78.60
6752;DHT22;3413;47.680;9.166;2023-08-06T08:48:12;17.40;78.60
6752;DHT22;3413;47.680;9.166;2023-08-06T08:53:16;17.30;78.60
6752;DHT22;3413;47.680;9.166;2023-08-06T08:58:19;17.30;78.80
6752;DHT22;3413;47.680;9.166;2023-08-06T09:03:21;17.30;78.80
6752;DHT22;3413;47.680;9.166;2023-08-06T09:08:27;17.20;78.80
6752;DHT22;3413;47.680;9.166;2023-08-06T09:13:35;17.20;79.00
6752;DHT22;3413;47.680;9.166;2023-08-06T09:18:39;17.20;79.00
6752;DHT22;3413;47.680;9.166;2023-08-06T09:23:41;17.10;79.00
6752;DHT22;3413;47.680;9.166;2023-08-06T09:28:43;17.10;79.20
6752;DHT22;3413;47.680;9.166;2023-08-06T09:33:45;17.00;79.30
6752;DHT22;3413;47.680;9.166;2023-08-06T09:38:51;17.10;79.40
6752;DHT22;3413;47.680;9.166;2023-08-06T09:43:55;17.20;79.50
6752;DHT22;3413;47.680;9.166;2023-08-06T09:48:57;17.20;79.50
6752;DHT22;3413;47.680;9.166;2023-08-06T09:54:00;17.30;79.70
6752;DHT22;3413;47.680;9.166;2023-08-06T09:59:18;17.30;79.60
6752;DHT22;3413;47.680;9.166;2023-08-06T10:04:21;17.30;79.70
6752;DHT22;3413;47.680;9.166;2023-08-06T10:48:14;18.40;80.20
6752;DHT22;3413;47.680;9.166;2023-08-06T12:30:57;18.80;80.10
6752;DHT22;3413;47.680;9.166;2023-08-06T12:47:22;19.00;80.10
6752;DHT22;3413;47.680;9.166;2023-08-06T12:52:43;18.90;79.70
6752;DHT22;3413;47.680;9.166;2023-08-06T12:58:04;18.90;79.70
6752;DHT22;3413;47.680;9.166;2023-08-06T13:03:42;19.00;79.80
6752;DHT22;3413;47.680;9.166;2023-08-06T13:09:28;19.00;80.00
6752;DHT22;3413;47.680;9.166;2023-08-06T13:42:55;19.30;79.70
6752;DHT22;3413;47.680;9.166;2023-08-06T13:47:57;19.40;79.60
6752;DHT22;3413;47.680;9.166;2023-08-06T13:53:00;19.50;79.30
6752;DHT22;3413;47.680;9.166;2023-08-06T13:58:02;19.60;79.40
6752;DHT22;3413;47.680;9.166;2023-08-06T14:03:04;19.70;79.40
6752;DHT22;3413;47.680;9.166;2023-08-06T14:08:06;19.80;79.20
6752;DHT22;3413;47.680;9.166;2023-08-06T14:13:08;19.90;79.20
6752;DHT22;3413;47.680;9.166;2023-08-06T14:18:15;20.00;79.10
6752;DHT22;3413;47.680;9.166;2023-08-06T14:23:17;20.00;79.00
6752;DHT22;3413;47.680;9.166;2023-08-06T14:28:19;20.20;80.00
6752;DHT22;3413;47.680;9.166;2023-08-06T14:33:21;20.30;78.90
6752;DHT22;3413;47.680;9.166;2023-08-06T14:38:28;20.40;78.80
6752;DHT22;3413;47.680;9.166;2023-08-06T14:43:30;20.40;78.80
6752;DHT22;3413;47.680;9.166;2023-08-06T14:48:32;20.30;78.70
6752;DHT22;3413;47.680;9.166;2023-08-06T14:53:35;20.30;78.90
6752;DHT22;3413;47.680;9.166;2023-08-06T14:58:37;20.30;78.80
6752;DHT22;3413;47.680;9.166;2023-08-06T15:03:39;20.40;78.70
6752;DHT22;3413;47.680;9.166;2023-08-06T15:08:41;20.50;78.70
6752;DHT22;3413;47.680;9.166;2023-08-06T15:13:45;20.60;78.60
6752;DHT22;3413;47.680;9.166;2023-08-06T15:18:47;20.60;78.60
6752;DHT22;3413;47.680;9.166;2023-08-06T15:23:50;20.60;78.60
6752;DHT22;3413;47.680;9.166;2023-08-06T15:28:52;20.80;78.50
6752;DHT22;3413;47.680;9.166;2023-08-06T15:33:54;20.90;78.50
6752;DHT22;3413;47.680;9.166;2023-08-06T15:38:59;21.00;78.50
6752;DHT22;3413;47.680;9.166;2023-08-06T15:44:02;21.10;78.30
6752;DHT22;3413;47.680;9.166;2023-08-06T15:49:04;21.00;78.00
6752;DHT22;3413;47.680;9.166;2023-08-06T15:54:06;21.00;78.00
6752;DHT22;3413;47.680;9.166;2023-08-06T15:59:27;20.90;78.00
6752;DHT22;3413;47.680;9.166;2023-08-06T16:04:30;20.90;77.90
6752;DHT22;3413;47.680;9.166;2023-08-06T16:09:33;20.90;77.80
6752;DHT22;3413;47.680;9.166;2023-08-06T16:14:35;20.70;77.70
6752;DHT22;3413;47.680;9.166;2023-08-06T16:19:38;20.40;77.50
6752;DHT22;3413;47.680;9.166;2023-08-06T16:24:40;19.90;77.70
6752;DHT22;3413;47.680;9.166;2023-08-06T16:29:42;19.60;77.60
6752;DHT22;3413;47.680;9.166;2023-08-06T16:34:46;19.50;77.90
6752;DHT22;3413;47.680;9.166;2023-08-06T16:39:50;19.50;78.20
6752;DHT22;3413;47.680;9.166;2023-08-06T16:44:52;19.60;78.20
6752;DHT22;3413;47.680;9.166;2023-08-06T16:49:54;19.80;78.30
6752;DHT22;3413;47.680;9.166;2023-08-06T16:54:56;19.80;78.00
6752;DHT22;3413;47.680;9.166;2023-08-06T16:59:58;19.70;77.90
6752;DHT22;3413;47.680;9.166;2023-08-06T17:05:00;19.70;77.80
6752;DHT22;3413;47.680;9.166;2023-08-06T17:10:02;19.60;77.70
6752;DHT22;3413;47.680;9.166;2023-08-06T17:15:05;19.60;77.80
6752;DHT22;3413;47.680;9.166;2023-08-06T17:20:07;19.60;77.70
6752;DHT22;3413;47.680;9.166;2023-08-06T17:25:09;19.50;77.50
6752;DHT22;3413;47.680;9.166;2023-08-06T17:30:11;19.50;77.50
6752;DHT22;3413;47.680;9.166;2023-08-06T17:35:13;19.50;77.40
6752;DHT22;3413;47.680;9.166;2023-08-06T17:40:15;19.50;77.40
6752;DHT22;3413;47.680;9.166;2023-08-06T17:45:17;19.40;77.20
6752;DHT22;3413;47.680;9.166;2023-08-06T17:50:19;19.40;77.10
6752;DHT22;3413;47.680;9.166;2023-08-06T17:55:22;19.20;76.90
6752;DHT22;3413;47.680;9.166;2023-08-06T18:00:24;19.20;76.90
6752;DHT22;3413;47.680;9.166;2023-08-06T18:05:27;19.10;76.40
6752;DHT22;3413;47.680;9.166;2023-08-06T18:10:32;19.10;76.50
6752;DHT22;3413;47.680;9.166;2023-08-06T18:15:34;19.00;76.30
6752;DHT22;3413;47.680;9.166;2023-08-06T18:20:36;19.00;76.30
6752;DHT22;3413;47.680;9.166;2023-08-06T18:25:38;19.00;76.30
6752;DHT22;3413;47.680;9.166;2023-08-06T18:30:40;19.00;76.20
6752;DHT22;3413;47.680;9.166;2023-08-06T18:35:42;19.00;76.20
6752;DHT22;3413;47.680;9.166;2023-08-06T18:40:44;19.00;76.10
6752;DHT22;3413;47.680;9.166;2023-08-06T18:45:46;18.90;76.10
6752;DHT22;3413;47.680;9.166;2023-08-06T18:50:48;18.90;75.90
6752;DHT22;3413;47.680;9.166;2023-08-06T18:55:51;18.90;76.10
6752;DHT22;3413;47.680;9.166;2023-08-06T19:00:58;19.00;76.00
6752;DHT22;3413;47.680;9.166;2023-08-06T19:06:01;18.80;76.00
6752;DHT22;3413;47.680;9.166;2023-08-06T19:11:06;18.70;76.10
6752;DHT22;3413;47.680;9.166;2023-08-06T19:16:08;18.70;76.00
6752;DHT22;3413;47.680;9.166;2023-08-06T19:21:10;18.70;76.60
6752;DHT22;3413;47.680;9.166;2023-08-06T19:26:15;18.60;75.80
6752;DHT22;3413;47.680;9.166;2023-08-06T19:31:17;18.50;75.80
6752;DHT22;3413;47.680;9.166;2023-08-06T19:36:19;18.30;75.70
6752;DHT22;3413;47.680;9.166;2023-08-06T19:41:21;18.30;75.80
6752;DHT22;3413;47.680;9.166;2023-08-06T19:46:25;18.30;75.70
6752;DHT22;3413;47.680;9.166;2023-08-06T19:51:27;18.30;75.90
6752;DHT22;3413;47.680;9.166;2023-08-06T19:56:30;18.30;76.00
6752;DHT22;3413;47.680;9.166;2023-08-06T20:01:32;18.30;76.00
6752;DHT22;3413;47.680;9.166;2023-08-06T20:06:35;18.30;75.90
6752;DHT22;3413;47.680;9.166;2023-08-06T20:11:37;18.20;75.70
6752;DHT22;3413;47.680;9.166;2023-08-06T20:16:40;18.00;75.70
6752;DHT22;3413;47.680;9.166;2023-08-06T20:21:42;17.90;75.70
6752;DHT22;3413;47.680;9.166;2023-08-06T20:26:44;17.90;75.70
6752;DHT22;3413;47.680;9.166;2023-08-06T20:31:46;17.80;75.80
6752;DHT22;3413;47.680;9.166;2023-08-06T20:36:48;17.80;75.70
6752;DHT22;3413;47.680;9.166;2023-08-06T20:41:50;17.80;75.80
6752;DHT22;3413;47.680;9.166;2023-08-06T20:46:52;17.70;75.70
6752;DHT22;3413;47.680;9.166;2023-08-06T20:51:54;17.70;75.80
6752;DHT22;3413;47.680;9.166;2023-08-06T20:56:56;17.70;75.60
6752;DHT22;3413;47.680;9.166;2023-08-06T21:01:58;17.70;75.60
6752;DHT22;3413;47.680;9.166;2023-08-06T21:07:00;17.60;75.50
6752;DHT22;3413;47.680;9.166;2023-08-06T21:12:02;17.60;75.50
6752;DHT22;3413;47.680;9.166;2023-08-06T21:17:04;17.60;75.50
6752;DHT22;3413;47.680;9.166;2023-08-06T21:22:06;17.50;75.40
6752;DHT22;3413;47.680;9.166;2023-08-06T21:27:08;17.50;76.10
6752;DHT22;3413;47.680;9.166;2023-08-06T21:32:40;17.40;75.40
6752;DHT22;3413;47.680;9.166;2023-08-06T22:01:10;17.30;75.40
6752;DHT22;3413;47.680;9.166;2023-08-06T22:06:13;17.40;75.30
6752;DHT22;3413;47.680;9.166;2023-08-06T22:11:15;17.30;75.40
6752;DHT22;3413;47.680;9.166;2023-08-06T22:16:17;17.20;75.30
6752;DHT22;3413;47.680;9.166;2023-08-06T22:21:19;17.20;75.30
6752;DHT22;3413;47.680;9.166;2023-08-06T22:26:21;17.30;75.50
6752;DHT22;3413;47.680;9.166;2023-08-06T22:31:24;17.30;75.50
6752;DHT22;3413;47.680;9.166;2023-08-06T22:36:26;17.20;75.30
6752;DHT22;3413;47.680;9.166;2023-08-06T22:41:28;17.30;75.30
6752;DHT22;3413;47.680;9.166;2023-08-06T22:46:30;17.10;75.40
6752;DHT22;3413;47.680;9.166;2023-08-06T22:51:32;17.20;75.40
6752;DHT22;3413;47.680;9.166;2023-08-06T22:56:34;17.20;75.30
6752;DHT22;3413;47.680;9.166;2023-08-06T23:01:36;17.30;75.40
6752;DHT22;3413;47.680;9.166;2023-08-06T23:06:38;17.30;75.30
6752;DHT22;3413;47.680;9.166;2023-08-06T23:11:40;17.20;75.20
6752;DHT22;3413;47.680;9.166;2023-08-06T23:16:42;17.20;76.00
6752;DHT22;3413;47.680;9.166;2023-08-06T23:21:44;17.10;75.20
6752;DHT22;3413;47.680;9.166;2023-08-06T23:26:46;17.20;75.30
6752;DHT22;3413;47.680;9.166;2023-08-06T23:31:48;17.10;75.20
6752;DHT22;3413;47.680;9.166;2023-08-06T23:36:50;17.10;75.20
6752;DHT22;3413;47.680;9.166;2023-08-06T23:41:52;17.00;75.30
6752;DHT22;3413;47.680;9.166;2023-08-06T23:46:55;17.00;75.50
6752;DHT22;3413;47.680;9.166;2023-08-06T23:51:57;17.00;75.30
6752;DHT22;3413;47.680;9.166;2023-08-06T23:56:59;16.90;76.10
